Time;durP1;ratioP1;P1;durP2;ratioP2;P2;SDS_P1;SDS_P2;PMS_P1;PMS_P2;Temp;Humidity;BMP_temperature;BMP_pressure;BME280_temperature;BME280_humidity;BME280_pressure;Samples;Min_cycle;Max_cycle;Signal;HPM_P1;HPM_P2
2021/06/10 00:02:17;;;;;;;15.43;11.30;;;;;;;21.95;82.06;101086.94;5093902;28;20017;-82
2021/06/10 00:04:42;;;;;;;22.27;12.15;;;;;;;21.99;81.75;101075.75;5093785;28;20032;-83
2021/06/10 00:07:08;;;;;;;18.48;10.55;;;;;;;21.94;81.42;101075.44;5093803;28;20028;-82
2021/06/10 00:09:34;;;;;;;15.45;9.82;;;;;;;21.99;81.66;101074.94;5093465;28;20071;-82
2021/06/10 00:11:59;;;;;;;15.00;9.95;;;;;;;21.92;81.38;101068.56;5093584;28;20012;-82
2021/06/10 00:14:25;;;;;;;17.70;10.70;;;;;;;21.88;81.50;101064.53;5093635;28;20028;-82
2021/06/10 00:16:51;;;;;;;16.23;9.85;;;;;;;21.96;81.98;101068.09;5093532;28;20012;-82
2021/06/10 00:19:16;;;;;;;18.25;10.75;;;;;;;21.94;81.65;101066.59;5093508;28;20024;-82
2021/06/10 00:21:42;;;;;;;17.00;10.75;;;;;;;21.87;81.50;101065.53;5093445;28;20032;-82
2021/06/10 00:24:08;;;;;;;13.95;11.00;;;;;;;21.98;81.09;101059.91;5093099;28;20024;-82
2021/06/10 00:26:33;;;;;;;17.90;10.98;;;;;;;21.96;80.82;101059.22;5091727;28;20051;-82
2021/06/10 00:28:59;;;;;;;17.45;11.38;;;;;;;21.85;81.15;101055.00;5093389;28;20461;-82
2021/06/10 00:31:24;;;;;;;16.65;11.20;;;;;;;21.93;81.11;101054.19;5093200;28;20032;-82
2021/06/10 00:33:49;;;;;;;17.30;11.27;;;;;;;21.95;80.89;101057.53;5093103;28;20027;-82
2021/06/10 00:36:15;;;;;;;25.10;11.57;;;;;;;21.95;80.98;101049.53;5093297;28;20024;-82
2021/06/10 00:38:41;;;;;;;14.15;10.38;;;;;;;21.97;80.99;101052.88;5091620;28;20428;-82
2021/06/10 00:41:06;;;;;;;17.02;11.38;;;;;;;21.83;82.04;101050.84;5092859;28;20028;-82
2021/06/10 00:43:32;;;;;;;15.32;10.68;;;;;;;21.79;82.36;101039.63;5093162;28;20024;-82
2021/06/10 00:45:57;;;;;;;18.80;12.00;;;;;;;21.92;81.17;101047.16;5092955;28;20099;-82
2021/06/10 00:48:23;;;;;;;18.70;12.07;;;;;;;21.75;82.62;101043.63;5092939;28;20723;-82
2021/06/10 00:50:51;;;;;;;17.13;12.20;;;;;;;21.70;81.92;101045.94;5092687;28;20024;-82
2021/06/10 00:53:22;;;;;;;19.35;11.82;;;;;;;21.75;81.32;101038.28;5091186;28;20032;-82
2021/06/10 00:55:50;;;;;;;18.90;11.75;;;;;;;21.75;81.13;101032.94;5092751;28;20035;-82
2021/06/10 00:58:16;;;;;;;21.23;12.75;;;;;;;21.71;80.91;101037.75;5091504;28;20081;-82
2021/06/10 01:00:41;;;;;;;22.38;13.45;;;;;;;21.63;81.70;101045.75;5092579;28;20035;-82
2021/06/10 01:03:07;;;;;;;23.27;12.93;;;;;;;21.64;81.63;101047.41;5092848;28;20389;-82
2021/06/10 01:05:32;;;;;;;23.65;13.10;;;;;;;21.55;82.41;101053.72;5092493;28;20028;-82
2021/06/10 01:08:12;;;;;;;16.55;11.23;;;;;;;21.57;82.00;101043.72;5092476;28;20418;-82
2021/06/10 01:10:41;;;;;;;21.67;12.85;;;;;;;21.62;81.23;101035.22;5092505;28;20027;-82
2021/06/10 01:13:22;;;;;;;22.30;13.07;;;;;;;21.50;82.12;101024.81;5092300;28;20054;-82
2021/06/10 01:15:53;;;;;;;23.38;13.02;;;;;;;21.61;80.96;101033.56;5092392;28;20473;-82
2021/06/10 01:18:19;;;;;;;20.33;11.95;;;;;;;21.52;82.02;101044.19;5092485;28;20143;-82
2021/06/10 01:20:45;;;;;;;20.05;12.43;;;;;;;21.54;81.33;101044.03;5092233;28;20525;-82
2021/06/10 01:23:30;;;;;;;19.10;11.45;;;;;;;21.68;80.42;101032.75;5092528;28;20107;-82
2021/06/10 01:26:05;;;;;;;25.00;12.10;;;;;;;21.67;80.43;101024.88;5092217;28;20504;-82
2021/06/10 01:28:34;;;;;;;21.67;12.68;;;;;;;21.63;79.21;101018.19;5091894;28;20058;-82
2021/06/10 01:31:03;;;;;;;19.52;11.35;;;;;;;21.51;80.60;101020.31;5091942;28;20537;-82
2021/06/10 01:33:32;;;;;;;18.08;11.85;;;;;;;21.50;81.11;101021.31;5092152;28;20028;-82
2021/06/10 01:36:01;;;;;;;19.15;12.38;;;;;;;21.51;80.63;101025.66;5092020;28;20107;-82
2021/06/10 01:38:30;;;;;;;18.65;10.93;;;;;;;21.62;79.92;101014.66;5091331;28;20170;-82
2021/06/10 01:40:56;;;;;;;16.90;10.07;;;;;;;21.59;79.37;101007.81;5091921;28;20020;-82
2021/06/10 01:43:25;;;;;;;13.40;9.50;;;;;;;21.56;80.19;101007.28;5091076;28;20351;-82
2021/06/10 01:45:50;;;;;;;17.35;10.40;;;;;;;21.53;79.71;101013.81;5091969;28;20027;-82
2021/06/10 01:48:19;;;;;;;11.88;8.80;;;;;;;21.57;79.85;101017.81;5092022;28;20382;-82
2021/06/10 01:50:50;;;;;;;14.30;8.50;;;;;;;21.56;78.69;101031.34;5091855;28;20024;-82
2021/06/10 01:53:17;;;;;;;13.63;8.50;;;;;;;21.57;78.24;101041.03;5091917;28;20050;-82
2021/06/10 01:55:45;;;;;;;13.88;8.82;;;;;;;21.51;79.38;101044.38;5091636;28;20063;-82
2021/06/10 01:58:12;;;;;;;13.60;8.82;;;;;;;21.50;78.58;101040.84;5091832;28;20362;-82
2021/06/10 02:00:38;;;;;;;12.93;8.35;;;;;;;21.49;78.86;101041.84;5091902;28;20028;-82
2021/06/10 02:03:04;;;;;;;15.25;8.98;;;;;;;21.52;79.24;101038.00;5091893;28;20020;-82
2021/06/10 02:05:31;;;;;;;16.05;8.30;;;;;;;21.53;79.18;101035.19;5091968;28;20077;-82
2021/06/10 02:07:58;;;;;;;12.35;8.30;;;;;;;21.43;80.36;101042.50;5091725;28;20032;-82
2021/06/10 02:10:26;;;;;;;10.32;6.85;;;;;;;21.39;79.84;101041.09;5091411;28;20020;-82
2021/06/10 02:12:51;;;;;;;10.88;6.70;;;;;;;21.39;78.92;101047.28;5091622;28;20024;-82
2021/06/10 02:15:18;;;;;;;9.35;6.15;;;;;;;21.32;79.24;101054.25;5091687;28;20017;-82
2021/06/10 02:17:45;;;;;;;10.15;6.20;;;;;;;20.99;81.71;101047.84;5091778;28;20385;-82
2021/06/10 02:20:15;;;;;;;6.10;5.13;;;;;;;21.02;81.15;101052.06;5091674;28;20024;-82
2021/06/10 02:22:40;;;;;;;9.68;4.97;;;;;;;21.07;81.63;101052.41;5091800;28;20028;-82
2021/06/10 02:25:06;;;;;;;6.63;4.88;;;;;;;21.21;80.71;101054.53;5091295;28;20031;-82
2021/06/10 02:27:32;;;;;;;6.65;4.28;;;;;;;21.03;81.65;101053.72;5091567;28;20384;-82
2021/06/10 02:29:57;;;;;;;5.15;4.60;;;;;;;21.14;81.03;101056.16;5091449;28;20024;-82
2021/06/10 02:32:23;;;;;;;7.03;5.22;;;;;;;21.07;81.53;101049.75;5091539;28;20115;-82
2021/06/10 02:34:49;;;;;;;6.88;4.72;;;;;;;20.80;84.19;101055.09;5091509;28;20506;-82
2021/06/10 02:37:17;;;;;;;8.52;5.05;;;;;;;20.95;81.76;101055.38;5091634;28;20027;-82
2021/06/10 02:39:46;;;;;;;7.53;4.97;;;;;;;21.07;81.42;101049.75;5091362;28;20035;-82
2021/06/10 02:42:14;;;;;;;8.50;5.35;;;;;;;20.71;85.30;101049.84;5091546;28;20378;-82
2021/06/10 02:44:42;;;;;;;6.30;4.75;;;;;;;20.94;83.84;101047.50;5091503;28;20028;-82
2021/06/10 02:47:08;;;;;;;5.82;4.72;;;;;;;20.82;85.31;101046.09;5091560;28;20023;-82
2021/06/10 02:49:34;;;;;;;7.45;4.95;;;;;;;20.97;85.10;101040.03;5091930;28;20032;-82
2021/06/10 02:52:04;;;;;;;8.75;5.25;;;;;;;20.98;85.61;101039.03;5094865;28;20024;-82
2021/06/10 02:54:30;;;;;;;7.32;5.15;;;;;;;20.85;85.63;101045.78;5094999;28;20035;-82
2021/06/10 02:56:57;;;;;;;5.43;4.70;;;;;;;21.05;83.91;101039.25;5094996;28;20031;-82
2021/06/10 02:59:24;;;;;;;5.60;4.55;;;;;;;21.13;84.75;101038.44;5095148;28;20095;-82
2021/06/10 03:01:50;;;;;;;8.07;4.97;;;;;;;20.89;86.09;101020.44;5095130;28;20020;-82
2021/06/10 03:04:16;;;;;;;5.95;4.85;;;;;;;20.98;84.39;101017.66;5095072;28;20375;-82
2021/06/10 03:06:42;;;;;;;6.15;3.97;;;;;;;21.03;83.62;101011.88;5094511;28;20030;-81
2021/06/10 03:09:09;;;;;;;6.30;3.95;;;;;;;20.78;84.62;101016.22;5095004;28;20103;-82
2021/06/10 03:11:38;;;;;;;5.65;4.32;;;;;;;20.74;86.02;101021.00;5094769;28;20020;-82
2021/06/10 03:14:06;;;;;;;5.60;4.38;;;;;;;20.72;85.89;101031.00;5094911;28;20103;-82
2021/06/10 03:16:32;;;;;;;6.25;4.13;;;;;;;20.53;87.04;101037.31;5094762;28;20052;-82
2021/06/10 03:18:59;;;;;;;5.63;3.83;;;;;;;20.68;86.87;101031.47;5094715;28;20024;-82
2021/06/10 03:21:26;;;;;;;4.38;3.80;;;;;;;20.76;86.31;101034.22;5094187;28;20028;-82
2021/06/10 03:23:52;;;;;;;4.78;3.42;;;;;;;20.80;86.05;101030.22;5094876;28;20020;-82
2021/06/10 03:26:21;;;;;;;5.28;4.20;;;;;;;20.82;85.46;101030.91;5094441;28;20028;-82
2021/06/10 03:28:47;;;;;;;7.25;4.00;;;;;;;20.59;86.76;101036.72;5094581;28;20505;-82
2021/06/10 03:31:12;;;;;;;5.10;3.63;;;;;;;20.62;87.30;101034.75;5094592;28;20042;-82
2021/06/10 03:33:38;;;;;;;5.18;4.07;;;;;;;20.67;87.25;101037.78;5094378;28;20056;-82
2021/06/10 03:36:05;;;;;;;4.63;3.50;;;;;;;20.58;86.62;101029.69;5093941;28;20474;-82
2021/06/10 03:38:31;;;;;;;4.65;3.60;;;;;;;20.52;87.59;101024.97;5094557;28;20027;-82
2021/06/10 03:40:58;;;;;;;5.15;4.07;;;;;;;20.60;87.56;101022.41;5094245;28;20024;-82
2021/06/10 03:43:25;;;;;;;6.13;4.22;;;;;;;20.66;86.57;101030.81;5094410;28;20077;-82
2021/06/10 03:45:51;;;;;;;4.18;3.33;;;;;;;20.60;87.09;101030.41;5093804;28;20078;-82
2021/06/10 03:48:16;;;;;;;4.97;3.95;;;;;;;20.48;88.54;101028.97;5094095;28;20032;-82
2021/06/10 03:50:43;;;;;;;6.07;3.78;;;;;;;20.64;88.49;101027.44;5094145;28;20052;-82
2021/06/10 03:53:08;;;;;;;6.05;3.80;;;;;;;20.79;86.36;101020.53;5094125;28;20046;-82
2021/06/10 03:55:34;;;;;;;4.93;3.75;;;;;;;20.74;86.35;101030.84;5094117;28;20024;-82
2021/06/10 03:58:00;;;;;;;4.30;3.90;;;;;;;20.78;86.44;101016.22;5093995;28;20057;-82
2021/06/10 04:00:25;;;;;;;6.20;3.72;;;;;;;20.81;85.47;101026.56;5093574;28;20035;-82
2021/06/10 04:02:51;;;;;;;3.60;3.30;;;;;;;20.88;85.64;101024.13;5093229;28;20016;-82
2021/06/10 04:05:16;;;;;;;4.38;3.15;;;;;;;20.87;84.93;101017.91;5093489;28;20035;-82
2021/06/10 04:07:42;;;;;;;4.88;4.18;;;;;;;20.86;85.58;101026.09;5093712;28;20031;-82
2021/06/10 04:10:08;;;;;;;5.53;3.20;;;;;;;20.97;84.50;101018.69;5093977;28;20052;-82
2021/06/10 04:12:33;;;;;;;5.30;3.70;;;;;;;20.95;84.85;101025.16;5093571;28;20024;-82
2021/06/10 04:14:59;;;;;;;3.67;3.08;;;;;;;20.99;84.66;101019.34;5093587;28;20106;-82
2021/06/10 04:17:24;;;;;;;4.32;3.15;;;;;;;20.99;84.00;101011.34;5093955;28;20024;-82
2021/06/10 04:19:50;;;;;;;3.03;2.72;;;;;;;21.04;84.13;101018.88;5093243;28;20477;-82
2021/06/10 04:22:15;;;;;;;4.80;2.70;;;;;;;21.00;84.15;101023.69;5093611;28;20085;-82
2021/06/10 04:24:42;;;;;;;5.50;3.08;;;;;;;21.02;84.09;101020.03;5093515;28;20388;-82
2021/06/10 04:27:07;;;;;;;4.70;3.13;;;;;;;20.93;84.62;101028.00;5093306;28;20541;-82
2021/06/10 04:29:33;;;;;;;3.97;2.90;;;;;;;20.99;84.60;101032.72;5093310;28;20027;-82
2021/06/10 04:31:58;;;;;;;5.90;2.85;;;;;;;20.91;85.42;101029.13;5092913;28;20032;-82
2021/06/10 04:34:23;;;;;;;4.90;2.80;;;;;;;20.92;85.75;101036.16;5093143;28;20063;-82
2021/06/10 04:36:49;;;;;;;3.78;2.88;;;;;;;20.87;86.10;101038.44;5093302;28;20039;-82
2021/06/10 04:39:14;;;;;;;2.92;2.55;;;;;;;20.89;86.52;101037.31;5092910;28;20020;-82
2021/06/10 04:41:40;;;;;;;4.18;2.95;;;;;;;20.86;86.53;101045.63;5091769;28;20333;-82
2021/06/10 04:44:05;;;;;;;3.85;3.15;;;;;;;20.91;85.74;101043.34;5092962;28;20035;-82
2021/06/10 04:46:32;;;;;;;5.80;3.13;;;;;;;20.81;86.43;101045.22;5092943;28;20024;-82
2021/06/10 04:48:58;;;;;;;6.03;3.13;;;;;;;20.77;86.86;101039.41;5092900;28;20024;-82
2021/06/10 04:51:25;;;;;;;3.08;2.78;;;;;;;20.88;86.49;101048.97;5092948;28;20099;-82
2021/06/10 04:53:53;;;;;;;5.65;4.50;;;;;;;21.00;85.65;101039.69;5092553;28;20020;-82
2021/06/10 04:56:19;;;;;;;4.30;3.53;;;;;;;21.15;84.72;101039.97;5092535;28;20500;-82
2021/06/10 04:58:44;;;;;;;4.10;3.13;;;;;;;21.10;85.23;101039.59;5092581;28;20039;-82
2021/06/10 05:01:09;;;;;;;3.35;3.00;;;;;;;21.27;83.98;101039.69;5092691;28;20024;-82
2021/06/10 05:03:35;;;;;;;4.05;3.20;;;;;;;21.04;85.36;101039.41;5092576;28;20363;-82
2021/06/10 05:06:00;;;;;;;3.70;3.33;;;;;;;20.99;86.27;101035.38;5092285;28;20024;-82
2021/06/10 05:08:26;;;;;;;3.70;3.30;;;;;;;20.98;85.86;101041.69;5092550;28;20030;-82
2021/06/10 05:10:51;;;;;;;4.38;3.58;;;;;;;21.09;85.10;101037.06;5092647;28;20493;-82
2021/06/10 05:13:16;;;;;;;4.30;3.88;;;;;;;21.12;85.58;101036.78;5091818;28;20062;-82
2021/06/10 05:15:42;;;;;;;4.70;3.60;;;;;;;21.23;84.40;101039.19;5092374;28;20035;-82
2021/06/10 05:18:07;;;;;;;4.55;3.88;;;;;;;21.20;84.28;101045.66;5092471;28;20064;-82
2021/06/10 05:20:32;;;;;;;4.13;3.55;;;;;;;21.23;84.74;101041.84;5092076;28;20028;-82
2021/06/10 05:22:58;;;;;;;4.97;4.32;;;;;;;21.33;83.75;101034.56;5092128;28;20442;-82
2021/06/10 05:25:23;;;;;;;4.90;4.05;;;;;;;21.10;85.05;101033.44;5092269;28;20024;-82
2021/06/10 05:27:49;;;;;;;5.53;3.88;;;;;;;21.08;86.08;101032.75;5092419;28;20431;-82
2021/06/10 05:30:15;;;;;;;4.78;4.10;;;;;;;21.43;83.21;101033.63;5092235;28;20024;-82
2021/06/10 05:32:41;;;;;;;4.35;3.90;;;;;;;21.45;82.42;101024.47;5092168;28;20074;-82
2021/06/10 05:35:07;;;;;;;3.95;3.45;;;;;;;21.35;83.98;101027.22;5091940;28;20032;-82
2021/06/10 05:37:32;;;;;;;3.97;3.22;;;;;;;21.61;82.74;101023.69;5092060;28;20038;-82
2021/06/10 05:39:57;;;;;;;3.75;3.45;;;;;;;21.71;82.53;101029.75;5092249;28;20024;-82
2021/06/10 05:42:23;;;;;;;3.70;3.35;;;;;;;21.81;81.93;101031.44;5092211;28;20054;-82
2021/06/10 05:44:48;;;;;;;4.60;3.63;;;;;;;21.87;82.29;101034.28;5092106;28;20028;-82
2021/06/10 05:47:13;;;;;;;5.25;3.50;;;;;;;21.96;81.90;101035.16;5091976;28;20030;-82
2021/06/10 05:49:39;;;;;;;4.45;3.80;;;;;;;22.05;80.66;101034.16;5091797;28;20056;-82
2021/06/10 05:52:05;;;;;;;3.90;3.25;;;;;;;22.05;80.15;101039.50;5091977;28;20028;-82
2021/06/10 05:54:30;;;;;;;3.90;3.15;;;;;;;22.25;79.58;101039.25;5091966;28;20107;-82
2021/06/10 05:56:58;;;;;;;3.78;2.97;;;;;;;22.34;78.62;101038.28;5090514;28;20024;-82
2021/06/10 05:59:23;;;;;;;3.25;2.88;;;;;;;22.30;77.57;101044.94;5092106;28;20067;-82
2021/06/10 06:01:48;;;;;;;4.00;3.03;;;;;;;22.38;78.41;101039.59;5091775;28;20047;-82
2021/06/10 06:04:14;;;;;;;3.35;3.05;;;;;;;22.43;78.07;101052.47;5091701;28;20028;-82
2021/06/10 06:06:39;;;;;;;3.22;2.55;;;;;;;22.41;78.57;101038.44;5090065;28;20469;-82
2021/06/10 06:09:08;;;;;;;3.60;2.63;;;;;;;22.40;76.69;101042.94;5090815;28;20039;-82
2021/06/10 06:11:35;;;;;;;3.47;2.53;;;;;;;22.46;77.13;101044.97;5090843;28;20031;-82
2021/06/10 06:14:08;;;;;;;4.22;2.17;;;;;;;22.51;77.39;101041.78;5092263;28;20032;-85
2021/06/10 06:16:41;;;;;;;4.07;2.60;;;;;;;22.63;76.26;101039.59;5075755;28;20028;-85
2021/06/10 06:19:08;;;;;;;2.63;2.22;;;;;;;22.74;75.20;101040.09;5079922;28;20024;-83
2021/06/10 06:21:34;;;;;;;2.30;2.10;;;;;;;22.76;75.57;101040.75;5088365;28;20016;-84
2021/06/10 06:24:01;;;;;;;2.95;2.05;;;;;;;22.88;74.17;101045.78;5091664;28;20096;-84
2021/06/10 06:26:30;;;;;;;3.28;1.85;;;;;;;22.87;73.19;101039.59;5094972;28;20077;-84
2021/06/10 06:28:59;;;;;;;3.78;2.00;;;;;;;22.80;74.18;101046.63;5095279;28;20031;-83
2021/06/10 06:31:26;;;;;;;3.10;2.05;;;;;;;22.77;74.47;101044.28;5093902;28;20079;-83
2021/06/10 06:33:52;;;;;;;2.45;1.73;;;;;;;22.78;74.18;101048.63;5094359;28;20044;-83
2021/06/10 06:36:18;;;;;;;1.67;1.55;;;;;;;23.08;72.19;101047.09;5094831;28;20032;-84
2021/06/10 06:38:43;;;;;;;2.20;1.50;;;;;;;23.00;71.70;101044.41;5094755;28;20355;-84
2021/06/10 06:41:09;;;;;;;1.65;1.55;;;;;;;23.12;71.90;101052.97;5094826;28;20031;-84
2021/06/10 06:43:34;;;;;;;3.78;1.55;;;;;;;23.25;71.22;101050.59;5095057;28;20048;-84
2021/06/10 06:46:00;;;;;;;4.13;1.85;;;;;;;22.93;72.90;101054.16;5094685;28;20050;-84
2021/06/10 06:48:26;;;;;;;2.30;1.70;;;;;;;23.06;72.33;101050.97;5095414;28;20028;-84
2021/06/10 06:50:51;;;;;;;1.95;1.75;;;;;;;23.14;71.03;101050.94;5094672;28;20024;-84
2021/06/10 06:53:17;;;;;;;2.42;1.60;;;;;;;23.20;71.33;101049.44;5094993;28;20028;-82
2021/06/10 06:55:44;;;;;;;2.22;1.63;;;;;;;23.25;70.25;101047.91;5094328;28;20020;-83
2021/06/10 06:58:09;;;;;;;2.42;1.92;;;;;;;23.35;69.36;101053.06;5094354;28;20024;-83
2021/06/10 07:00:35;;;;;;;1.52;1.40;;;;;;;23.39;68.45;101053.56;5094844;28;20359;-83
2021/06/10 07:03:00;;;;;;;1.83;1.30;;;;;;;23.32;68.98;101062.31;5094552;28;20462;-83
2021/06/10 07:05:25;;;;;;;1.10;1.00;;;;;;;23.36;69.38;101055.59;5093963;28;20385;-83
2021/06/10 07:07:51;;;;;;;1.38;1.25;;;;;;;23.29;70.00;101054.59;5094219;28;20478;-83
2021/06/10 07:10:16;;;;;;;1.55;1.35;;;;;;;23.16;70.08;101049.78;5094250;28;20385;-83
2021/06/10 07:12:41;;;;;;;1.83;1.17;;;;;;;22.88;70.50;101051.13;5094633;28;20081;-83
2021/06/10 07:15:07;;;;;;;1.30;1.20;;;;;;;22.89;71.93;101050.97;5094382;28;20027;-83
2021/06/10 07:17:33;;;;;;;1.08;0.98;;;;;;;23.16;70.45;101060.50;5094593;28;20409;-83
2021/06/10 07:20:00;;;;;;;3.10;1.10;;;;;;;22.99;71.11;101063.34;5094027;28;20030;-83
2021/06/10 07:22:28;;;;;;;1.50;1.10;;;;;;;23.24;70.16;101062.31;5094333;28;20031;-83
2021/06/10 07:24:54;;;;;;;1.45;1.20;;;;;;;23.17;70.64;101059.47;5094711;28;20111;-83
2021/06/10 07:27:19;;;;;;;1.20;1.10;;;;;;;23.14;70.65;101061.66;5094158;28;20130;-83
2021/06/10 07:29:45;;;;;;;1.55;1.00;;;;;;;23.02;70.76;101055.81;5093526;28;20048;-83
2021/06/10 07:32:12;;;;;;;3.53;0.80;;;;;;;23.00;70.99;101054.28;5094213;28;20032;-83
2021/06/10 07:34:38;;;;;;;2.15;1.15;;;;;;;22.83;70.72;101059.69;5093412;28;20116;-83
2021/06/10 07:37:06;;;;;;;3.47;1.20;;;;;;;22.88;71.33;101046.59;5092913;28;20111;-83
2021/06/10 07:39:33;;;;;;;1.40;1.00;;;;;;;23.13;69.36;101049.28;5093892;28;20028;-83
2021/06/10 07:41:59;;;;;;;1.77;1.15;;;;;;;23.09;68.90;101064.03;5093431;28;20020;-83
2021/06/10 07:44:25;;;;;;;1.73;1.02;;;;;;;23.23;69.19;101049.94;5093862;28;20087;-83
2021/06/10 07:46:50;;;;;;;0.80;0.75;;;;;;;23.28;69.50;101058.31;5094007;28;20030;-83
2021/06/10 07:49:15;;;;;;;1.55;0.80;;;;;;;23.23;69.50;101060.66;5093989;28;20028;-83
2021/06/10 07:51:41;;;;;;;1.02;0.90;;;;;;;23.39;69.21;101067.81;5093400;28;20032;-83
2021/06/10 07:54:06;;;;;;;0.85;0.70;;;;;;;23.41;69.14;101063.09;5094514;28;20381;-83
2021/06/10 07:56:31;;;;;;;2.15;0.75;;;;;;;23.54;68.29;101067.94;5094097;28;20028;-83
2021/06/10 07:58:57;;;;;;;0.93;0.80;;;;;;;23.66;66.49;101066.53;5093985;28;20466;-83
2021/06/10 08:01:22;;;;;;;1.08;0.88;;;;;;;23.50;68.80;101061.22;5093505;28;20505;-83
2021/06/10 08:03:48;;;;;;;3.05;1.40;;;;;;;23.65;67.46;101064.03;5093484;28;20039;-83
2021/06/10 08:06:13;;;;;;;1.42;0.98;;;;;;;23.74;67.89;101065.66;5093573;28;20039;-83
2021/06/10 08:08:38;;;;;;;1.38;1.00;;;;;;;23.94;65.63;101066.09;5093722;28;20024;-83
2021/06/10 08:11:07;;;;;;;1.65;0.95;;;;;;;23.89;66.11;101060.41;5093615;28;20016;-83
2021/06/10 08:13:34;;;;;;;2.53;1.15;;;;;;;23.75;67.29;101067.31;5092981;28;20023;-83
2021/06/10 08:16:00;;;;;;;1.20;0.98;;;;;;;23.54;68.10;101063.41;5092781;28;20028;-83
2021/06/10 08:18:27;;;;;;;1.42;0.90;;;;;;;23.74;67.06;101066.50;5092975;28;20504;-83
2021/06/10 08:20:53;;;;;;;2.53;1.00;;;;;;;23.88;66.80;101053.41;5093221;28;20032;-83
2021/06/10 08:23:18;;;;;;;12.60;1.95;;;;;;;23.73;67.61;101066.66;5093254;28;20020;-83
2021/06/10 08:25:44;;;;;;;2.95;1.60;;;;;;;23.82;66.50;101057.63;5093128;28;20024;-83
2021/06/10 08:28:11;;;;;;;2.28;1.90;;;;;;;23.98;65.82;101063.91;5093051;28;20070;-83
2021/06/10 08:30:36;;;;;;;2.25;1.90;;;;;;;23.94;65.71;101074.16;5084638;28;20031;-84
2021/06/10 08:33:02;;;;;;;2.95;1.50;;;;;;;24.12;66.14;101074.69;5071964;28;20359;-83
2021/06/10 08:35:27;;;;;;;1.98;1.83;;;;;;;24.36;64.53;101072.88;5072879;28;20421;-83
2021/06/10 08:37:53;;;;;;;2.45;1.67;;;;;;;24.61;63.36;101075.41;5085387;28;20034;-83
2021/06/10 08:40:19;;;;;;;2.38;2.00;;;;;;;24.56;64.44;101077.78;5092954;28;20024;-83
2021/06/10 08:42:47;;;;;;;1.50;1.40;;;;;;;24.73;63.75;101074.78;5093095;28;20231;-83
2021/06/10 08:45:15;;;;;;;1.60;1.50;;;;;;;24.91;63.07;101079.84;5091822;28;20031;-83
2021/06/10 08:47:44;;;;;;;4.32;1.63;;;;;;;25.23;60.48;101080.56;5091921;28;20032;-83
2021/06/10 08:50:13;;;;;;;5.53;1.48;;;;;;;25.28;60.80;101080.84;5092924;28;20046;-83
2021/06/10 08:52:39;;;;;;;2.13;1.70;;;;;;;25.39;59.98;101081.41;5092578;28;20209;-83
2021/06/10 08:55:07;;;;;;;2.83;1.42;;;;;;;25.36;59.39;101081.78;5092931;28;20381;-83
2021/06/10 08:57:34;;;;;;;4.25;1.58;;;;;;;25.23;59.92;101074.34;5092888;28;20031;-83
2021/06/10 08:59:59;;;;;;;3.58;1.60;;;;;;;25.42;60.04;101076.50;5092847;28;20055;-83
2021/06/10 09:02:25;;;;;;;2.08;1.40;;;;;;;25.31;58.74;101085.84;5092458;28;20538;-83
2021/06/10 09:04:51;;;;;;;1.65;1.55;;;;;;;25.61;56.87;101083.19;5092523;28;20020;-84
2021/06/10 09:07:17;;;;;;;1.48;1.20;;;;;;;25.77;58.20;101083.97;5092486;28;20386;-83
2021/06/10 09:09:43;;;;;;;1.20;1.10;;;;;;;25.61;58.64;101091.25;5092542;28;20024;-83
2021/06/10 09:12:11;;;;;;;4.38;1.80;;;;;;;25.47;58.70;101092.06;5092587;28;20035;-83
2021/06/10 09:15:12;;;;;;;2.00;1.58;;;;;;;25.94;57.48;101093.53;5092373;28;20059;-83
2021/06/10 09:17:40;;;;;;;2.92;1.30;;;;;;;26.00;56.72;101089.25;5069393;28;20098;-83
2021/06/10 09:20:20;;;;;;;1.55;1.20;;;;;;;25.97;58.83;101092.31;5088261;28;20118;-84
2021/06/10 09:23:07;;;;;;;1.33;1.10;;;;;;;26.14;56.15;101087.53;5092237;28;20128;-83
2021/06/10 09:25:33;;;;;;;1.48;1.27;;;;;;;25.92;56.97;101090.19;5092483;28;20020;-83
2021/06/10 09:28:03;;;;;;;2.83;1.10;;;;;;;26.37;57.27;101082.81;5091768;28;20085;-83
2021/06/10 09:30:40;;;;;;;1.38;1.27;;;;;;;26.52;55.67;101085.44;5091937;28;20028;-83
2021/06/10 09:33:11;;;;;;;1.65;0.98;;;;;;;26.70;55.96;101088.56;5091955;28;20027;-84
2021/06/10 09:35:39;;;;;;;1.88;0.85;;;;;;;26.55;56.10;101081.53;5092369;28;20489;-84
2021/06/10 09:38:16;;;;;;;4.90;1.33;;;;;;;26.61;55.86;101083.50;5091967;28;20048;-83
2021/06/10 09:40:42;;;;;;;0.70;0.52;;;;;;;26.74;55.17;101083.63;5091385;28;20486;-83
2021/06/10 09:43:07;;;;;;;0.93;0.85;;;;;;;26.16;57.54;101085.50;5091998;28;20107;-84
2021/06/10 09:45:33;;;;;;;1.35;0.95;;;;;;;26.28;56.26;101084.81;5091931;28;20363;-83
2021/06/10 09:48:01;;;;;;;2.92;1.20;;;;;;;26.26;56.62;101086.88;5091895;28;20036;-83
2021/06/10 09:50:28;;;;;;;5.03;1.10;;;;;;;26.33;57.29;101084.25;5091164;28;20527;-83
2021/06/10 09:53:04;;;;;;;0.90;0.80;;;;;;;26.57;55.69;101079.50;5091610;28;20052;-83
2021/06/10 09:55:34;;;;;;;8.70;0.98;;;;;;;26.87;55.36;101070.22;5080528;28;20055;-83
2021/06/10 09:58:11;;;;;;;1.08;0.63;;;;;;;27.36;54.68;101065.81;5091984;28;20032;-83
2021/06/10 10:00:37;;;;;;;0.70;0.60;;;;;;;27.75;53.65;101047.34;5091422;28;20031;-83
2021/06/10 10:03:02;;;;;;;0.95;0.70;;;;;;;28.64;50.68;101057.13;5091881;28;20024;-84
2021/06/10 10:05:28;;;;;;;0.80;0.50;;;;;;;28.86;48.99;101044.22;5091453;28;20020;-84
2021/06/10 10:07:53;;;;;;;1.42;0.50;;;;;;;29.40;47.83;101058.47;5091562;28;20024;-84
2021/06/10 10:10:20;;;;;;;1.00;0.40;;;;;;;29.94;47.12;101057.22;5091328;28;20031;-84
2021/06/10 10:12:47;;;;;;;5.75;0.50;;;;;;;29.89;46.28;101070.56;5091480;28;20035;-84
2021/06/10 10:15:14;;;;;;;3.10;0.43;;;;;;;29.70;46.43;101068.75;5091134;28;20031;-84
2021/06/10 10:17:39;;;;;;;0.95;0.45;;;;;;;29.53;46.45;101065.72;5091117;28;20105;-84
2021/06/10 10:20:07;;;;;;;1.13;0.50;;;;;;;29.64;46.06;101065.03;5091047;28;20079;-84
2021/06/10 10:22:34;;;;;;;3.83;0.60;;;;;;;29.35;46.39;101064.53;5091467;28;20571;-83
2021/06/10 10:25:00;;;;;;;1.60;0.63;;;;;;;29.16;47.48;101060.00;5090446;28;20127;-83
2021/06/10 10:27:25;;;;;;;0.80;0.60;;;;;;;28.70;48.74;101067.09;5091771;28;20471;-84
2021/06/10 10:29:53;;;;;;;1.17;0.68;;;;;;;29.10;47.63;101060.81;5091638;28;20386;-84
2021/06/10 10:32:28;;;;;;;3.03;1.05;;;;;;;28.71;48.96;101060.63;5091494;28;20031;-84
2021/06/10 10:34:54;;;;;;;2.70;0.75;;;;;;;28.55;48.88;101055.66;5091256;28;20112;-84
2021/06/10 10:37:19;;;;;;;1.75;0.70;;;;;;;28.51;48.27;101065.19;5091208;28;20111;-84
2021/06/10 10:39:45;;;;;;;4.35;0.68;;;;;;;27.85;51.47;101059.41;5091222;28;20104;-83
2021/06/10 10:42:25;;;;;;;0.77;0.63;;;;;;;28.21;49.82;101060.16;5091222;28;20032;-83
2021/06/10 10:45:09;;;;;;;0.50;0.50;;;;;;;27.97;50.70;101048.06;5091517;28;20023;-84
2021/06/10 10:47:43;;;;;;;1.55;0.80;;;;;;;28.23;50.53;101052.69;5091020;28;20032;-83
2021/06/10 10:50:08;;;;;;;2.83;0.90;;;;;;;28.74;49.99;101062.09;5091505;28;20107;-82
2021/06/10 10:52:38;;;;;;;1.08;0.95;;;;;;;29.10;50.34;101052.69;5091692;28;20158;-83
2021/06/10 10:55:16;;;;;;;2.55;1.52;;;;;;;29.09;49.20;101060.00;5091416;28;20477;-83
2021/06/10 10:57:44;;;;;;;2.15;0.70;;;;;;;29.27;48.54;101052.06;5091483;28;20059;-84
2021/06/10 11:00:14;;;;;;;1.52;0.77;;;;;;;29.02;48.83;101051.03;5091512;28;20021;-84
2021/06/10 11:02:50;;;;;;;1.52;0.80;;;;;;;29.01;48.82;101047.53;5088181;28;20413;-85
2021/06/10 11:05:30;;;;;;;0.63;0.40;;;;;;;29.79;47.27;101045.84;5090711;28;20027;-85
2021/06/10 11:07:56;;;;;;;1.88;0.50;;;;;;;29.94;45.82;101034.72;5091244;28;20088;-84
2021/06/10 11:10:37;;;;;;;0.70;0.47;;;;;;;30.07;45.62;101036.53;5091139;28;20103;-85
2021/06/10 11:13:15;;;;;;;1.17;0.45;;;;;;;30.72;44.34;101034.38;5093318;28;20024;-85
2021/06/10 11:15:43;;;;;;;0.43;0.40;;;;;;;30.78;42.95;101041.63;5094227;28;20497;-84
2021/06/10 11:18:09;;;;;;;1.58;0.30;;;;;;;30.84;42.44;101024.47;5096391;28;20337;-84
2021/06/10 11:20:38;;;;;;;0.40;0.20;;;;;;;30.34;43.58;101037.22;5095722;28;20024;-85
2021/06/10 11:23:10;;;;;;;1.10;0.40;;;;;;;29.76;45.82;101025.47;5094730;28;20035;-85